createdAt,value
2023-04-25T00:02:33.093Z,0.77
2023-04-25T00:07:37.099Z,0.80
2023-04-25T00:12:41.445Z,0.85
2023-04-25T00:17:47.012Z,1.10
2023-04-25T00:22:50.624Z,0.80
2023-04-25T00:27:54.121Z,1.02
2023-04-25T00:32:59.277Z,0.80
2023-04-25T00:38:02.942Z,1.00
2023-04-25T00:43:07.126Z,0.90
2023-04-25T00:48:11.984Z,0.80
2023-04-25T00:53:15.966Z,0.95
2023-04-25T00:58:19.758Z,0.80
2023-04-25T01:03:25.334Z,0.90
2023-04-25T01:08:31.437Z,1.00
2023-04-25T01:13:35.439Z,1.50
2023-04-25T01:18:41.509Z,1.00
2023-04-25T01:23:46.940Z,0.90
2023-04-25T01:28:51.596Z,0.85
2023-04-25T01:33:55.433Z,1.00
2023-04-25T01:39:00.546Z,1.20
2023-04-25T01:44:04.636Z,0.80
2023-04-25T01:49:08.312Z,1.00
2023-04-25T01:54:14.322Z,1.00
2023-04-25T01:59:17.932Z,0.90
2023-04-25T02:04:39.605Z,1.00
2023-04-25T02:09:45.574Z,1.02
2023-04-25T02:14:49.973Z,0.90
2023-04-25T02:20:04.273Z,0.90
2023-04-25T02:25:10.419Z,0.95
2023-04-25T02:30:14.673Z,1.00
2023-04-25T02:35:18.274Z,1.27
2023-04-25T02:40:24.405Z,1.10
2023-04-25T02:45:28.023Z,1.20
2023-04-25T02:50:32.520Z,1.10
2023-04-25T02:55:37.951Z,0.90
2023-04-25T03:00:43.293Z,1.00
2023-04-25T03:05:47.944Z,0.85
2023-04-25T03:10:56.702Z,1.27
2023-04-25T03:16:02.156Z,1.00
2023-04-25T03:21:07.244Z,1.10
2023-04-25T03:26:12.482Z,1.02
2023-04-25T03:31:16.024Z,0.95
2023-04-25T03:36:19.650Z,1.10
2023-04-25T03:41:24.745Z,1.00
2023-04-25T03:46:32.864Z,1.00
2023-04-25T03:51:36.633Z,0.98
2023-04-25T03:56:41.768Z,0.90
2023-04-25T04:01:54.417Z,1.17
2023-04-25T04:06:58.487Z,0.98
2023-04-25T04:12:07.240Z,0.90
2023-04-25T04:17:11.686Z,1.10
2023-04-25T04:22:15.642Z,0.88
2023-04-25T04:27:22.457Z,1.08
2023-04-25T04:32:33.687Z,1.30
2023-04-25T04:37:37.944Z,1.10
2023-04-25T04:42:44.352Z,1.20
2023-04-25T04:48:08.441Z,1.20
2023-04-25T04:53:19.703Z,1.20
2023-04-25T04:58:37.656Z,1.15
2023-04-25T05:04:01.498Z,0.90
2023-04-25T05:09:43.933Z,0.90
2023-04-25T05:15:16.299Z,1.17
2023-04-25T05:20:47.631Z,1.40
2023-04-25T05:26:14.696Z,1.20
2023-04-25T05:31:39.384Z,1.27
2023-04-25T05:36:50.094Z,1.35
2023-04-25T05:41:53.809Z,1.30
2023-04-25T05:47:17.343Z,1.30
2023-04-25T05:52:40.982Z,1.27
2023-04-25T05:58:00.782Z,1.40
2023-04-25T06:03:06.479Z,1.35
2023-04-25T06:08:10.125Z,1.10
2023-04-25T06:13:15.122Z,1.17
2023-04-25T06:18:20.511Z,1.33
2023-04-25T06:23:24.204Z,1.30
2023-04-25T06:28:31.467Z,1.40
2023-04-25T06:33:36.573Z,1.20
2023-04-25T06:38:41.552Z,1.30
2023-04-25T06:43:45.158Z,1.40
2023-04-25T06:49:19.579Z,1.30
2023-04-25T06:54:25.203Z,1.05
2023-04-25T06:59:38.050Z,1.10
2023-04-25T07:04:43.473Z,1.13
2023-04-25T07:09:47.300Z,1.05
2023-04-25T07:14:51.090Z,0.82
2023-04-25T07:19:56.129Z,0.68
2023-04-25T07:24:59.874Z,0.80
2023-04-25T07:30:07.455Z,0.90
2023-04-25T07:35:12.692Z,1.05
2023-04-25T07:40:17.613Z,1.10
2023-04-25T07:45:29.242Z,0.90
2023-04-25T07:50:35.046Z,1.10
2023-04-25T07:55:41.044Z,1.00
2023-04-25T08:00:53.755Z,0.90
2023-04-25T08:06:19.017Z,0.90
2023-04-25T08:11:35.285Z,1.00
2023-04-25T08:16:39.215Z,0.90
2023-04-25T08:21:44.441Z,0.93
2023-04-25T08:26:56.789Z,0.95
2023-04-25T08:32:04.774Z,1.45
2023-04-25T08:37:11.915Z,1.00
2023-04-25T08:42:27.156Z,0.90
2023-04-25T08:47:32.786Z,1.10
2023-04-25T08:52:40.296Z,1.17
2023-04-25T08:57:45.287Z,1.10
2023-04-25T09:02:49.976Z,0.90
2023-04-25T09:07:55.151Z,1.20
2023-04-25T09:13:06.684Z,1.00
2023-04-25T09:18:30.793Z,1.15
2023-04-25T09:23:43.539Z,1.02
2023-04-25T09:28:49.094Z,1.08
2023-04-25T09:34:02.594Z,0.90
2023-04-25T09:39:17.408Z,0.90
2023-04-25T09:44:30.164Z,1.00
2023-04-25T09:49:35.531Z,0.98
2023-04-25T09:54:48.743Z,0.93
2023-04-25T09:59:58.179Z,1.48
2023-04-25T10:05:08.780Z,0.70
2023-04-25T10:10:17.629Z,0.70
2023-04-25T10:15:22.217Z,0.93
2023-04-25T10:20:25.738Z,0.70
2023-04-25T10:25:30.841Z,0.80
2023-04-25T10:30:34.480Z,0.65
2023-04-25T10:35:38.072Z,0.47
2023-04-25T10:40:43.072Z,0.60
2023-04-25T10:45:56.563Z,0.52
2023-04-25T10:51:13.178Z,0.70
2023-04-25T10:56:22.371Z,0.80
2023-04-25T11:01:27.773Z,0.80
2023-04-25T11:06:36.212Z,0.70
2023-04-25T11:11:41.277Z,1.00
2023-04-25T11:16:44.924Z,0.80
2023-04-25T11:21:48.497Z,0.80
2023-04-25T11:26:53.489Z,1.02
2023-04-25T11:31:59.287Z,0.90
2023-04-25T11:37:03.521Z,0.68
2023-04-25T11:42:13.831Z,0.70
2023-04-25T11:47:17.779Z,0.73
2023-04-25T11:52:21.681Z,0.70
2023-04-25T11:57:26.762Z,0.80
2023-04-25T12:02:30.814Z,0.65
2023-04-25T12:07:34.672Z,1.08
2023-04-25T12:12:40.231Z,0.60
2023-04-25T12:17:44.096Z,0.60
2023-04-25T12:22:48.803Z,0.50
2023-04-25T12:27:54.104Z,0.68
2023-04-25T12:32:57.952Z,0.98
2023-04-25T12:38:01.538Z,1.10
2023-04-25T12:43:06.515Z,1.02
2023-04-25T12:48:10.118Z,1.20
2023-04-25T12:53:13.875Z,0.85
2023-04-25T12:58:19.509Z,0.60
2023-04-25T13:03:23.743Z,0.70
2023-04-25T13:08:27.532Z,0.60
2023-04-25T13:13:32.678Z,0.60
2023-04-25T13:18:36.296Z,0.50
2023-04-25T13:23:39.920Z,0.60
2023-04-25T13:28:45.184Z,0.60
2023-04-25T13:33:49.029Z,0.50
2023-04-25T13:38:52.722Z,0.60
2023-04-25T13:43:57.798Z,0.50
2023-04-25T13:49:11.449Z,0.50
2023-04-25T13:54:16.115Z,0.70
2023-04-25T13:59:20.959Z,0.32
2023-04-25T14:04:24.679Z,0.60
2023-04-25T14:09:28.442Z,0.60
2023-04-25T14:14:33.318Z,0.60
2023-04-25T14:19:38.690Z,0.40
2023-04-25T14:24:42.315Z,0.70
2023-04-25T14:29:47.313Z,0.50
2023-04-25T14:34:51.005Z,0.57
2023-04-25T14:39:54.653Z,0.70
2023-04-25T14:44:59.558Z,0.55
2023-04-25T14:50:03.235Z,0.50
2023-04-25T14:55:08.552Z,0.50
2023-04-25T15:00:17.389Z,0.47
2023-04-25T15:05:21.118Z,0.60
2023-04-25T15:10:25.153Z,0.65
2023-04-25T15:15:30.492Z,0.80
2023-04-25T15:20:34.031Z,0.80
2023-04-25T15:25:37.617Z,0.73
2023-04-25T15:30:42.633Z,0.70
2023-04-25T15:35:47.386Z,0.50
2023-04-25T15:40:50.975Z,0.70
2023-04-25T15:45:58.134Z,0.60
2023-04-25T15:51:02.040Z,0.60
2023-04-25T15:56:05.789Z,0.60
2023-04-25T16:01:10.802Z,0.65
2023-04-25T16:06:14.466Z,0.60
2023-04-25T16:11:19.006Z,0.50
2023-04-25T16:16:24.027Z,0.55
2023-04-25T16:21:28.860Z,0.50
2023-04-25T16:26:32.358Z,0.63
2023-04-25T16:31:37.500Z,0.90
2023-04-25T16:36:41.434Z,0.88
2023-04-25T16:41:45.159Z,0.50
2023-04-25T16:46:50.757Z,0.80
2023-04-25T16:51:54.462Z,0.65
2023-04-25T16:56:58.248Z,0.45
2023-04-25T17:02:03.745Z,0.50
2023-04-25T17:07:08.471Z,0.63
2023-04-25T17:12:12.612Z,0.55
2023-04-25T17:17:19.149Z,0.70
2023-04-25T17:22:23.373Z,0.70
2023-04-25T17:27:26.998Z,0.50
2023-04-25T17:32:32.241Z,0.50
2023-04-25T17:37:40.150Z,0.88
2023-04-25T17:42:44.556Z,0.60
2023-04-25T17:47:52.218Z,0.70
2023-04-25T17:52:57.056Z,0.63
2023-04-25T17:58:01.581Z,0.75
2023-04-25T18:03:10.687Z,0.57
2023-04-25T18:08:15.776Z,0.55
2023-04-25T18:13:19.389Z,0.60
2023-04-25T18:18:28.112Z,0.90
2023-04-25T18:23:34.404Z,0.57
2023-04-25T18:28:38.365Z,0.70
2023-04-25T18:33:43.418Z,0.65
2023-04-25T18:38:51.134Z,0.70
2023-04-25T18:43:59.374Z,0.52
2023-04-25T18:49:05.125Z,0.90
2023-04-25T18:54:11.879Z,0.70
2023-04-25T18:59:17.578Z,0.60
2023-04-25T19:04:23.550Z,0.57
2023-04-25T19:09:28.502Z,0.60
2023-04-25T19:14:34.280Z,0.63
2023-04-25T19:19:39.911Z,0.57
2023-04-25T19:24:44.673Z,0.98
2023-04-25T19:29:58.422Z,0.90
2023-04-25T19:35:05.710Z,0.60
2023-04-25T19:40:12.073Z,0.50
2023-04-25T19:45:16.049Z,0.50
2023-04-25T19:50:22.326Z,0.50
2023-04-25T19:55:35.260Z,0.50
2023-04-25T20:00:43.094Z,0.63
2023-04-25T20:05:48.562Z,0.80
2023-04-25T20:10:55.475Z,0.68
2023-04-25T20:16:01.336Z,0.80
2023-04-25T20:21:08.821Z,0.80
2023-04-25T20:26:13.032Z,0.68
2023-04-25T20:31:17.076Z,0.70
2023-04-25T20:36:22.091Z,0.80
2023-04-25T20:41:25.743Z,0.80
2023-04-25T20:46:30.317Z,0.70
2023-04-25T20:51:36.378Z,0.80
2023-04-25T20:56:40.457Z,0.70
2023-04-25T21:01:44.133Z,0.60
2023-04-25T21:06:50.478Z,1.00
2023-04-25T21:11:54.423Z,0.73
2023-04-25T21:16:58.374Z,0.70
2023-04-25T21:22:03.752Z,0.70
2023-04-25T21:27:07.462Z,1.10
2023-04-25T21:32:20.925Z,0.70
2023-04-25T21:37:25.846Z,0.80
2023-04-25T21:42:29.337Z,0.80
2023-04-25T21:47:33.192Z,0.93
2023-04-25T21:52:39.235Z,1.02
2023-04-25T21:57:42.798Z,1.08
2023-04-25T22:02:46.592Z,0.80
2023-04-25T22:07:51.787Z,1.00
2023-04-25T22:12:56.012Z,1.20
2023-04-25T22:17:59.828Z,1.23
2023-04-25T22:23:04.726Z,1.08
2023-04-25T22:28:08.738Z,1.13
2023-04-25T22:33:12.392Z,1.20
2023-04-25T22:38:17.333Z,1.15
2023-04-25T22:43:20.941Z,1.08
2023-04-25T22:48:24.385Z,0.90
2023-04-25T22:53:30.995Z,1.10
2023-04-25T22:58:34.549Z,0.88
2023-04-25T23:03:38.284Z,0.95
2023-04-25T23:08:43.840Z,1.20
2023-04-25T23:13:47.339Z,1.20
2023-04-25T23:18:51.156Z,1.40
2023-04-25T23:23:56.127Z,1.70
2023-04-25T23:28:59.661Z,1.50
2023-04-25T23:34:03.266Z,2.05
2023-04-25T23:39:12.746Z,1.50
2023-04-25T23:44:16.361Z,1.58
2023-04-25T23:49:21.082Z,1.48
2023-04-25T23:54:26.979Z,1.88
2023-04-25T23:59:31.025Z,1.65
